createdAt,value
2023-04-19T00:01:59.144Z,21.80
2023-04-19T00:05:01.979Z,21.80
2023-04-19T00:08:03.888Z,21.30
2023-04-19T00:11:07.554Z,21.70
2023-04-19T00:14:09.080Z,21.60
2023-04-19T00:17:11.517Z,21.70
2023-04-19T00:20:13.661Z,21.60
2023-04-19T00:23:15.283Z,21.60
2023-04-19T00:26:16.699Z,21.60
2023-04-19T00:29:23.543Z,21.60
2023-04-19T00:32:25.359Z,21.70
2023-04-19T00:35:27.390Z,21.60
2023-04-19T00:38:29.034Z,21.60
2023-04-19T00:41:30.428Z,21.50
2023-04-19T00:44:32.317Z,21.40
2023-04-19T00:47:34.576Z,21.50
2023-04-19T00:50:36.598Z,21.50
2023-04-19T00:53:38.569Z,21.60
2023-04-19T00:56:40.366Z,21.60
2023-04-19T00:59:41.942Z,21.60
2023-04-19T01:02:43.486Z,21.60
2023-04-19T01:05:47.782Z,21.40
2023-04-19T01:08:49.479Z,21.40
2023-04-19T01:11:50.919Z,21.60
2023-04-19T01:14:52.219Z,21.30
2023-04-19T01:17:57.057Z,21.40
2023-04-19T01:20:59.148Z,21.60
2023-04-19T01:24:01.167Z,21.40
2023-04-19T01:27:02.692Z,21.20
2023-04-19T01:30:07.147Z,21.50
2023-04-19T01:33:08.638Z,21.70
2023-04-19T01:36:11.020Z,21.10
2023-04-19T01:39:13.168Z,21.60
2023-04-19T01:42:14.855Z,21.20
2023-04-19T01:45:16.546Z,21.30
2023-04-19T01:48:18.092Z,21.50
2023-04-19T01:51:20.986Z,21.00
2023-04-19T01:54:22.987Z,21.40
2023-04-19T01:57:25.045Z,21.30
2023-04-19T02:00:26.275Z,21.20
2023-04-19T02:03:27.904Z,21.60
2023-04-19T02:06:29.441Z,21.30
2023-04-19T02:09:37.632Z,21.40
2023-04-19T02:12:39.884Z,21.70
2023-04-19T02:15:43.966Z,21.50
2023-04-19T02:18:46.004Z,21.40
2023-04-19T02:21:47.481Z,21.10
2023-04-19T02:24:50.447Z,21.30
2023-04-19T02:27:52.921Z,21.70
2023-04-19T02:30:56.151Z,21.20
2023-04-19T02:33:57.570Z,21.40
2023-04-19T02:36:58.813Z,21.40
2023-04-19T02:40:04.858Z,21.40
2023-04-19T02:43:06.299Z,21.00
2023-04-19T02:46:07.557Z,21.40
2023-04-19T02:49:09.416Z,21.40
2023-04-19T02:52:10.883Z,21.00
2023-04-19T02:55:16.055Z,21.10
2023-04-19T02:58:18.815Z,21.50
2023-04-19T03:01:32.953Z,21.00
2023-04-19T03:04:38.013Z,21.30
2023-04-19T03:07:41.498Z,21.50
2023-04-19T03:10:45.489Z,21.10
2023-04-19T03:13:48.002Z,21.40
2023-04-19T03:16:49.687Z,21.30
2023-04-19T03:19:51.774Z,21.10
2023-04-19T03:22:53.343Z,21.30
2023-04-19T03:25:56.311Z,21.00
2023-04-19T03:29:05.624Z,21.40
2023-04-19T03:32:17.909Z,21.10
2023-04-19T03:35:19.792Z,21.10
2023-04-19T03:38:22.016Z,21.10
2023-04-19T03:41:25.991Z,21.00
2023-04-19T03:44:46.471Z,21.10
2023-04-19T03:47:49.982Z,20.80
2023-04-19T03:50:51.701Z,21.30
2023-04-19T03:53:54.355Z,21.20
2023-04-19T03:56:58.023Z,21.30
2023-04-19T04:00:02.678Z,21.20
2023-04-19T04:03:06.197Z,21.30
2023-04-19T04:06:08.262Z,21.10
2023-04-19T04:09:10.289Z,20.90
2023-04-19T04:12:12.456Z,21.20
2023-04-19T04:15:15.432Z,20.70
2023-04-19T04:18:22.572Z,21.30
2023-04-19T04:21:25.715Z,20.70
2023-04-19T04:24:27.449Z,21.20
2023-04-19T04:27:39.862Z,21.20
2023-04-19T04:30:46.932Z,20.80
2023-04-19T04:33:48.533Z,20.90
2023-04-19T04:36:55.058Z,20.90
2023-04-19T04:39:58.080Z,21.30
2023-04-19T04:43:03.573Z,20.80
2023-04-19T04:46:08.918Z,20.70
2023-04-19T04:49:15.049Z,21.30
2023-04-19T04:52:17.774Z,20.70
2023-04-19T04:55:29.895Z,20.80
2023-04-19T04:58:31.948Z,21.20
2023-04-19T05:01:41.141Z,21.20
2023-04-19T05:04:42.742Z,21.00
2023-04-19T05:07:45.071Z,21.10
2023-04-19T05:10:46.505Z,20.80
2023-04-19T05:13:50.043Z,21.00
2023-04-19T05:16:52.704Z,20.80
2023-04-19T05:19:54.494Z,21.30
2023-04-19T05:22:57.876Z,20.90
2023-04-19T05:25:59.651Z,20.90
2023-04-19T05:29:03.492Z,21.30
2023-04-19T05:32:14.978Z,21.10
2023-04-19T05:35:22.068Z,20.90
2023-04-19T05:38:23.782Z,21.20
2023-04-19T05:41:25.519Z,21.10
2023-04-19T05:44:27.590Z,21.10
2023-04-19T05:47:29.215Z,21.20
2023-04-19T05:50:45.469Z,21.20
2023-04-19T05:54:05.528Z,21.10
2023-04-19T05:57:07.268Z,21.10
2023-04-19T06:00:10.798Z,20.90
2023-04-19T06:03:15.408Z,21.10
2023-04-19T06:06:17.672Z,21.20
2023-04-19T06:09:19.685Z,20.90
2023-04-19T06:12:20.971Z,21.10
2023-04-19T06:15:25.103Z,21.20
2023-04-19T06:18:27.311Z,21.20
2023-04-19T06:21:30.607Z,19.90
2023-04-19T06:24:33.695Z,20.90
2023-04-19T06:27:36.312Z,21.10
2023-04-19T06:30:38.382Z,21.20
2023-04-19T06:33:45.405Z,21.20
2023-04-19T06:36:46.831Z,21.30
2023-04-19T06:39:48.751Z,21.40
2023-04-19T06:42:50.208Z,21.80
2023-04-19T06:45:59.337Z,21.30
2023-04-19T06:49:00.839Z,21.80
2023-04-19T06:52:02.220Z,21.40
2023-04-19T06:55:04.253Z,22.10
2023-04-19T06:58:09.609Z,21.30
2023-04-19T07:01:12.243Z,21.50
2023-04-19T07:04:14.290Z,21.40
2023-04-19T07:07:16.620Z,21.50
2023-04-19T07:10:18.425Z,21.30
2023-04-19T07:13:21.033Z,21.50
2023-04-19T07:16:23.024Z,21.60
2023-04-19T07:19:28.321Z,21.70
2023-04-19T07:22:29.932Z,21.70
2023-04-19T07:25:32.609Z,21.80
2023-04-19T07:28:33.988Z,21.60
2023-04-19T07:31:36.089Z,21.80
2023-04-19T07:34:37.729Z,21.50
2023-04-19T07:37:39.136Z,21.80
2023-04-19T07:40:40.505Z,22.00
2023-04-19T07:43:41.962Z,22.00
2023-04-19T07:46:43.968Z,22.00
2023-04-19T07:49:51.575Z,22.00
2023-04-19T07:52:53.075Z,22.10
2023-04-19T07:55:54.649Z,21.90
2023-04-19T07:59:06.952Z,22.10
2023-04-19T08:02:10.739Z,22.10
2023-04-19T08:05:13.105Z,22.10
2023-04-19T08:08:14.578Z,21.90
2023-04-19T08:11:15.960Z,22.00
2023-04-19T08:14:32.369Z,22.60
2023-04-19T08:17:42.146Z,22.10
2023-04-19T08:20:45.922Z,21.80
2023-04-19T08:23:48.617Z,22.00
2023-04-19T08:26:53.237Z,22.10
2023-04-19T08:29:54.983Z,22.10
2023-04-19T08:32:57.391Z,22.30
2023-04-19T08:35:59.043Z,22.10
2023-04-19T08:39:06.539Z,21.80
2023-04-19T08:42:24.732Z,21.70
2023-04-19T08:45:33.079Z,22.20
2023-04-19T08:48:36.099Z,21.90
2023-04-19T08:51:39.411Z,22.30
2023-04-19T08:54:42.001Z,22.00
2023-04-19T08:57:46.676Z,21.90
2023-04-19T09:00:48.201Z,22.00
2023-04-19T09:04:02.260Z,22.10
2023-04-19T09:07:08.663Z,22.30
2023-04-19T09:10:11.650Z,22.30
2023-04-19T09:13:13.175Z,22.00
2023-04-19T09:16:26.278Z,22.30
2023-04-19T09:19:46.101Z,22.40
2023-04-19T09:23:03.351Z,22.00
2023-04-19T09:26:22.836Z,22.00
2023-04-19T09:29:26.683Z,22.10
2023-04-19T09:32:29.192Z,22.20
2023-04-19T09:35:40.837Z,22.30
2023-04-19T09:38:47.323Z,22.40
2023-04-19T09:41:51.674Z,22.10
2023-04-19T09:45:27.764Z,22.40
2023-04-19T09:48:18.457Z,22.10
2023-04-19T09:51:21.137Z,22.20
2023-04-19T09:54:23.776Z,22.80
2023-04-19T09:57:26.416Z,22.80
2023-04-19T10:00:29.804Z,22.50
2023-04-19T10:03:37.948Z,22.30
2023-04-19T10:09:53.632Z,22.20
2023-04-19T10:13:16.041Z,22.40
2023-04-19T10:16:22.079Z,22.20
2023-04-19T10:19:25.676Z,22.20
2023-04-19T10:22:28.178Z,22.60
2023-04-19T10:25:30.427Z,22.50
2023-04-19T10:28:35.009Z,22.10
2023-04-19T10:31:36.706Z,22.60
2023-04-19T10:34:39.471Z,22.10
2023-04-19T10:37:41.473Z,22.60
2023-04-19T10:40:59.798Z,22.60
2023-04-19T10:44:11.867Z,22.40
2023-04-19T10:47:14.713Z,22.20
2023-04-19T10:50:16.973Z,22.60
2023-04-19T10:53:46.138Z,22.70
2023-04-19T10:57:05.606Z,22.60
2023-04-19T11:00:26.121Z,22.70
2023-04-19T11:03:56.426Z,22.80
2023-04-19T11:07:01.192Z,22.80
2023-04-19T11:10:02.804Z,22.80
2023-04-19T11:13:05.578Z,22.80
2023-04-19T11:16:07.941Z,22.90
2023-04-19T11:19:09.439Z,22.50
2023-04-19T11:22:11.034Z,22.40
2023-04-19T11:25:15.661Z,22.80
2023-04-19T11:28:17.832Z,22.90
2023-04-19T11:31:21.361Z,22.70
2023-04-19T11:34:26.520Z,22.80
2023-04-19T11:37:33.782Z,23.10
2023-04-19T11:40:36.984Z,22.70
2023-04-19T11:43:39.652Z,23.00
2023-04-19T11:46:41.695Z,22.90
2023-04-19T11:49:43.415Z,22.90
2023-04-19T11:52:49.062Z,22.50
2023-04-19T11:55:51.577Z,23.00
2023-04-19T11:59:00.343Z,22.60
2023-04-19T12:02:06.953Z,22.90
2023-04-19T12:05:10.281Z,22.90
2023-04-19T12:08:14.168Z,23.10
2023-04-19T12:11:18.063Z,22.90
2023-04-19T12:14:22.506Z,23.10
2023-04-19T12:17:23.953Z,22.90
2023-04-19T12:20:31.456Z,23.10
2023-04-19T12:23:35.835Z,22.80
2023-04-19T12:26:54.559Z,23.30
2023-04-19T12:29:57.940Z,23.20
2023-04-19T12:33:02.378Z,23.40
2023-04-19T12:36:06.722Z,23.30
2023-04-19T12:39:09.637Z,23.30
2023-04-19T12:42:14.099Z,23.50
2023-04-19T12:45:17.004Z,23.50
2023-04-19T12:48:18.473Z,23.50
2023-04-19T12:51:19.965Z,23.60
2023-04-19T12:54:21.451Z,23.30
2023-04-19T12:57:24.063Z,23.60
2023-04-19T13:00:26.365Z,23.70
2023-04-19T13:03:32.133Z,23.70
2023-04-19T13:06:37.151Z,23.70
2023-04-19T13:09:38.832Z,24.70
2023-04-19T13:12:40.524Z,23.60
2023-04-19T13:15:43.304Z,23.30
2023-04-19T13:18:44.768Z,23.70
2023-04-19T13:21:47.246Z,23.60
2023-04-19T13:24:48.656Z,23.80
2023-04-19T13:27:50.888Z,23.90
2023-04-19T13:30:53.160Z,24.00
2023-04-19T13:33:54.856Z,23.60
2023-04-19T13:36:57.706Z,24.10
2023-04-19T13:40:10.580Z,24.20
2023-04-19T13:43:20.571Z,24.10
2023-04-19T13:46:22.861Z,24.00
2023-04-19T13:49:24.319Z,23.70
2023-04-19T13:52:26.204Z,24.20
2023-04-19T13:55:29.306Z,24.20
2023-04-19T13:58:31.029Z,24.10
2023-04-19T14:01:32.970Z,24.20
2023-04-19T14:04:36.855Z,24.30
2023-04-19T14:07:41.752Z,24.30
2023-04-19T14:10:43.217Z,24.30
2023-04-19T14:13:48.354Z,24.10
2023-04-19T14:16:50.555Z,24.30
2023-04-19T14:19:53.916Z,24.30
2023-04-19T14:22:58.073Z,24.20
2023-04-19T14:26:01.401Z,24.30
2023-04-19T14:29:02.932Z,24.40
2023-04-19T14:32:20.931Z,24.50
2023-04-19T14:35:28.512Z,24.50
2023-04-19T14:38:30.250Z,24.60
2023-04-19T14:41:31.741Z,24.50
2023-04-19T14:44:33.164Z,24.40
2023-04-19T14:47:35.228Z,24.20
2023-04-19T14:50:37.366Z,24.50
2023-04-19T14:53:38.814Z,24.50
2023-04-19T14:56:40.193Z,24.50
2023-04-19T14:59:41.701Z,24.40
2023-04-19T15:02:43.997Z,24.50
2023-04-19T15:05:45.783Z,24.60
2023-04-19T15:08:47.392Z,24.50
2023-04-19T15:11:51.746Z,24.50
2023-04-19T15:14:53.198Z,24.40
2023-04-19T16:14:10.730Z,24.60
2023-04-19T16:53:52.493Z,24.50
2023-04-19T16:56:56.315Z,22.80
2023-04-19T16:59:58.126Z,22.50
2023-04-19T17:03:01.964Z,23.00
2023-04-19T18:51:38.133Z,25.00
2023-04-19T19:09:06.668Z,22.50
2023-04-19T19:58:21.042Z,24.30
2023-04-19T20:01:10.967Z,23.90
2023-04-19T20:25:07.587Z,24.10
2023-04-19T20:28:10.048Z,23.90
2023-04-19T20:34:17.685Z,24.00
2023-04-19T20:40:25.726Z,24.00
2023-04-19T20:43:29.877Z,24.30
2023-04-19T21:08:23.330Z,23.80
2023-04-19T21:11:29.884Z,23.70
2023-04-19T21:48:02.726Z,23.40
2023-04-19T21:51:07.227Z,23.70
